logo
Search for airport 
image banner adimage banner adimage banner ad
image banner ad

FLLZ - Loza

Located in Chitiwa, Zambia

ICAO - , IATA -

Data provided by Airmate  

General information

Coordinates: S13°43'47" E29°14'1"
Elevation is 4114 feet MSL.
Magnetic variation is -4° East
View others Airports in Central Province

Operational data

Special qualification required
Current time UTC:
Current local time:
Weather at : - ( 0 km )
METAR: PHNY 202313Z AUTO 04015G18KT 10SM BKN021 BKN036 OVC048 22/18 A3011 RMK AO2
View NOTAMs / SUP AIP / TFR affecting this airport [VIEW]
Communications frequencies: [VIEW]

Runways:

RWY identifierQFULength (ft)Width (ft)SurfaceLDA (ft)
1091°3461104GRAS
28271°3461104GRAS

Airport contact information

Address: Chitiwa Zambia

Satellite view of FLLZ